Time;durP1;ratioP1;P1;durP2;ratioP2;P2;SDS_P1;SDS_P2;PMS_P1;PMS_P2;Temp;Humidity;BMP_temperature;BMP_pressure;BME280_temperature;BME280_humidity;BME280_pressure;Samples;Min_cycle;Max_cycle;Signal;HPM_P1;HPM_P2
2021/12/03 00:00:56;;;;;;;1.00;0.50;;;15.90;80.90;;;;;;5093398;28;20376;-43
2021/12/03 00:03:22;;;;;;;1.90;0.50;;;;;;;;;;5092793;28;20032;-44
2021/12/03 00:05:49;;;;;;;2.10;0.88;;;;;;;;;;5093258;28;20108;-43
2021/12/03 00:08:17;;;;;;;1.40;0.55;;;;;;;;;;5092948;28;20055;-44
2021/12/03 00:10:45;;;;;;;0.95;0.77;;;;;;;;;;5093249;28;20035;-43
2021/12/03 00:13:10;;;;;;;2.10;0.80;;;;;;;;;;5092841;28;20081;-44
2021/12/03 00:15:37;;;;;;;2.33;0.60;;;;;;;;;;5092741;28;20099;-44
2021/12/03 00:18:03;;;;;;;2.60;1.02;;;;;;;;;;5093047;28;20024;-43
2021/12/03 00:20:32;;;;;;;1.48;0.52;;;;;;;;;;5092653;28;20490;-43
2021/12/03 00:22:59;;;;;;;1.10;0.50;;;;;;;;;;5092863;28;20031;-44
2021/12/03 00:25:25;;;;;;;2.15;0.70;;;15.70;78.00;;;;;;5092582;28;20028;-44
2021/12/03 00:27:51;;;;;;;1.75;0.75;;;;;;;;;;5092575;28;20474;-44
2021/12/03 00:30:18;;;;;;;1.60;0.60;;;15.70;81.10;;;;;;5092308;28;20020;-44
2021/12/03 00:32:45;;;;;;;1.10;0.43;;;15.70;79.30;;;;;;5092526;28;20486;-44
2021/12/03 00:35:11;;;;;;;1.05;0.60;;;;;;;;;;5092727;28;20556;-43
2021/12/03 00:37:38;;;;;;;2.83;0.45;;;15.60;81.10;;;;;;5092462;28;20028;-43
2021/12/03 00:40:10;;;;;;;0.75;0.43;;;15.60;75.90;;;;;;5092747;28;20376;-44
2021/12/03 00:42:36;;;;;;;1.00;0.40;;;;;;;;;;5092373;28;20020;-43
2021/12/03 00:45:04;;;;;;;1.42;0.70;;;15.60;82.20;;;;;;5092284;28;20494;-44
2021/12/03 00:47:31;;;;;;;1.17;0.45;;;;;;;;;;5092212;28;20390;-44
2021/12/03 00:49:57;;;;;;;0.82;0.40;;;;;;;;;;5092262;28;20058;-44
2021/12/03 00:52:23;;;;;;;0.85;0.45;;;;;;;;;;5092495;28;20031;-44
2021/12/03 00:54:49;;;;;;;2.38;0.70;;;;;;;;;;5092425;28;20024;-43
2021/12/03 00:57:15;;;;;;;1.25;0.55;;;;;;;;;;5092156;28;20024;-43
2021/12/03 00:59:41;;;;;;;1.90;0.70;;;;;;;;;;5092075;28;20055;-44
2021/12/03 01:02:07;;;;;;;0.90;0.47;;;;;;;;;;5092036;28;20044;-44
2021/12/03 01:04:33;;;;;;;0.82;0.43;;;;;;;;;;5092281;28;20032;-43
2021/12/03 01:06:59;;;;;;;0.63;0.35;;;;;;;;;;5092020;28;20113;-44
2021/12/03 01:09:25;;;;;;;1.55;0.50;;;;;;;;;;5092055;28;20496;-45
2021/12/03 01:11:52;;;;;;;1.45;0.50;;;;;;;;;;5092088;28;20027;-43
2021/12/03 01:14:19;;;;;;;1.05;0.40;;;15.50;81.00;;;;;;5091937;28;20058;-43
2021/12/03 01:16:45;;;;;;;2.70;0.73;;;;;;;;;;5092152;28;20067;-43
2021/12/03 01:19:11;;;;;;;1.02;0.43;;;;;;;;;;5091952;28;20032;-44
2021/12/03 01:21:38;;;;;;;0.63;0.38;;;15.40;80.50;;;;;;5091879;28;20054;-44
2021/12/03 01:24:04;;;;;;;0.60;0.30;;;;;;;;;;5092153;28;20451;-44
2021/12/03 01:26:32;;;;;;;0.73;0.40;;;;;;;;;;5092170;28;20024;-44
2021/12/03 01:28:58;;;;;;;0.68;0.30;;;;;;;;;;5091911;28;20493;-43
2021/12/03 01:31:24;;;;;;;0.75;0.32;;;;;;;;;;5091849;28;20062;-44
2021/12/03 01:33:50;;;;;;;0.65;0.30;;;;;;;;;;5091724;28;20028;-43
2021/12/03 01:36:17;;;;;;;0.73;0.40;;;;;;;;;;5092057;28;20044;-44
2021/12/03 01:38:43;;;;;;;0.95;0.43;;;;;;;;;;5092021;28;20028;-43
2021/12/03 01:41:09;;;;;;;0.98;0.43;;;;;;;;;;5094310;28;20024;-46
2021/12/03 01:43:35;;;;;;;0.88;0.40;;;;;;;;;;5095705;28;20552;-44
2021/12/03 01:46:04;;;;;;;1.05;0.40;;;15.30;81.60;;;;;;5095954;28;20402;-43
2021/12/03 01:48:30;;;;;;;1.48;0.63;;;15.30;80.60;;;;;;5095606;28;20173;-44
2021/12/03 01:50:56;;;;;;;1.25;0.50;;;;;;;;;;5095471;28;20031;-45
2021/12/03 01:53:25;;;;;;;1.45;0.38;;;15.30;81.80;;;;;;5095793;28;20024;-44
2021/12/03 01:55:56;;;;;;;1.08;0.60;;;15.30;81.70;;;;;;5095690;28;20024;-43
2021/12/03 01:58:22;;;;;;;1.98;0.50;;;;;;;;;;5095549;28;20159;-44
2021/12/03 02:00:53;;;;;;;1.35;0.73;;;15.30;81.60;;;;;;5095378;28;20081;-50
2021/12/03 02:03:21;;;;;;;0.77;0.45;;;15.20;81.30;;;;;;5095132;28;20048;-52
2021/12/03 02:05:47;;;;;;;1.00;0.40;;;;;;;;;;5095305;28;20035;-52
2021/12/03 02:08:14;;;;;;;1.35;0.45;;;15.20;80.70;;;;;;5095495;28;20031;-53
2021/12/03 02:10:40;;;;;;;1.65;0.50;;;15.40;81.90;;;;;;5095521;28;20099;-51
2021/12/03 02:13:07;;;;;;;0.85;0.40;;;;;;;;;;5095181;28;20016;-50
2021/12/03 02:15:33;;;;;;;0.85;0.55;;;;;;;;;;5093902;28;20768;-50
2021/12/03 02:17:59;;;;;;;0.70;0.30;;;;;;;;;;5095129;28;20074;-53
2021/12/03 02:20:25;;;;;;;0.77;0.35;;;;;;;;;;5095351;28;20028;-51
2021/12/03 02:22:51;;;;;;;0.40;0.40;;;;;;;;;;5094915;28;20050;-51
2021/12/03 02:25:20;;;;;;;1.38;0.47;;;15.10;82.20;;;;;;5094926;28;20059;-53
2021/12/03 02:27:48;;;;;;;0.90;0.50;;;15.10;79.80;;;;;;5095232;28;20115;-51
2021/12/03 02:30:14;;;;;;;1.73;0.50;;;;;;;;;;5095174;28;20081;-52
2021/12/03 02:32:40;;;;;;;0.40;0.40;;;;;;;;;;5095134;28;20429;-48
2021/12/03 02:35:07;;;;;;;1.60;0.47;;;15.10;80.60;;;;;;5094746;28;20523;-52
2021/12/03 02:37:33;;;;;;;1.17;0.50;;;;;;;;;;5094726;28;20493;-51
2021/12/03 02:39:59;;;;;;;1.88;0.30;;;;;;;;;;5094980;28;20024;-52
2021/12/03 02:42:25;;;;;;;1.70;0.65;;;;;;;;;;5094876;28;20039;-51
2021/12/03 02:44:51;;;;;;;0.75;0.30;;;;;;;;;;5094771;28;20036;-50
2021/12/03 02:47:17;;;;;;;1.88;0.47;;;;;;;;;;5094543;28;20031;-53
2021/12/03 02:49:43;;;;;;;0.60;0.30;;;;;;;;;;5094495;28;20028;-52
2021/12/03 02:52:10;;;;;;;0.52;0.40;;;15.10;82.40;;;;;;5094134;28;20020;-50
2021/12/03 02:54:37;;;;;;;0.40;0.25;;;;;;;;;;5094526;28;20024;-52
2021/12/03 02:57:03;;;;;;;0.68;0.40;;;;;;;;;;5094347;28;20035;-50
2021/12/03 02:59:30;;;;;;;0.45;0.40;;;;;;;;;;5094277;28;20425;-50
2021/12/03 03:01:56;;;;;;;1.02;0.50;;;;;;;;;;5094002;28;20046;-52
2021/12/03 03:04:22;;;;;;;1.38;0.30;;;;;;;;;;5094128;28;20494;-53
2021/12/03 03:06:48;;;;;;;2.38;0.40;;;;;;;;;;5094187;28;20485;-50
2021/12/03 03:09:15;;;;;;;1.38;0.30;;;;;;;;;;5094053;28;20494;-52
2021/12/03 03:11:41;;;;;;;1.35;0.70;;;;;;;;;;5094375;28;20028;-49
2021/12/03 03:14:07;;;;;;;1.67;0.35;;;;;;;;;;5094087;28;20073;-52
2021/12/03 03:16:33;;;;;;;0.95;0.40;;;14.90;82.50;;;;;;5094179;28;20028;-52
2021/12/03 03:18:59;;;;;;;1.83;0.28;;;;;;;;;;5093936;28;20024;-50
2021/12/03 03:21:26;;;;;;;0.98;0.30;;;;;;;;;;5093888;28;20028;-53
2021/12/03 03:23:52;;;;;;;0.47;0.20;;;;;;;;;;5094000;28;20048;-51
2021/12/03 03:26:18;;;;;;;1.15;0.50;;;;;;;;;;5093807;28;20384;-51
2021/12/03 03:28:44;;;;;;;0.57;0.30;;;14.70;80.30;;;;;;5094006;28;20571;-51
2021/12/03 03:31:11;;;;;;;2.50;0.40;;;;;;;;;;5093795;28;20032;-51
2021/12/03 03:33:37;;;;;;;1.90;0.50;;;;;;;;;;5093573;28;20032;-50
2021/12/03 03:36:03;;;;;;;1.38;0.30;;;;;;;;;;5093885;28;20419;-51
2021/12/03 03:38:29;;;;;;;0.57;0.40;;;;;;;;;;5093498;28;20490;-50
2021/12/03 03:40:55;;;;;;;0.35;0.30;;;;;;;;;;5093797;28;20020;-51
2021/12/03 03:43:22;;;;;;;1.25;0.40;;;14.90;82.30;;;;;;5093370;28;20068;-51
2021/12/03 03:45:48;;;;;;;1.02;0.20;;;14.80;79.70;;;;;;5093458;28;20378;-52
2021/12/03 03:48:14;;;;;;;0.93;0.40;;;;;;;;;;5093615;28;20016;-51
2021/12/03 03:50:40;;;;;;;1.63;0.38;;;;;;;;;;5093240;28;20028;-50
2021/12/03 03:53:06;;;;;;;0.45;0.30;;;;;;;;;;5093509;28;20019;-52
2021/12/03 03:55:33;;;;;;;0.82;0.55;;;;;;;;;;5093372;28;20444;-49
2021/12/03 03:58:01;;;;;;;0.98;0.50;;;14.70;83.30;;;;;;5093152;28;20028;-51
2021/12/03 04:00:40;;;;;;;1.38;0.43;;;14.80;83.20;;;;;;5093007;28;20032;-54
2021/12/03 04:03:07;;;;;;;1.03;0.40;;;15.00;83.60;;;;;;5092305;28;20515;-51
2021/12/03 04:05:33;;;;;;;1.80;0.75;;;;;;;;;;5092503;28;20040;-50
2021/12/03 04:07:59;;;;;;;0.82;0.40;;;;;;;;;;5093115;28;20028;-53
2021/12/03 04:10:25;;;;;;;1.30;0.43;;;;;;;;;;5092907;28;20559;-53
2021/12/03 04:12:51;;;;;;;0.70;0.20;;;;;;;;;;5092900;28;20028;-52
2021/12/03 04:15:17;;;;;;;0.77;0.30;;;;;;;;;;5092791;28;20090;-50
2021/12/03 04:17:43;;;;;;;0.95;0.30;;;;;;;;;;5092776;28;20051;-51
2021/12/03 04:20:12;;;;;;;0.95;0.47;;;14.70;82.90;;;;;;5093104;28;20063;-53
2021/12/03 04:22:38;;;;;;;0.38;0.38;;;;;;;;;;5092769;28;20107;-51
2021/12/03 04:25:06;;;;;;;0.20;0.20;;;14.80;83.20;;;;;;5092714;28;20036;-51
2021/12/03 04:27:34;;;;;;;0.93;0.30;;;;;;;;;;5092785;28;20072;-51
2021/12/03 04:30:00;;;;;;;0.98;0.38;;;;;;;;;;5092749;28;20111;-54
2021/12/03 04:32:26;;;;;;;1.63;0.50;;;;;;;;;;5092691;28;20111;-52
2021/12/03 04:34:53;;;;;;;1.67;0.30;;;14.70;80.40;;;;;;5092458;28;20061;-50
2021/12/03 04:37:19;;;;;;;0.60;0.20;;;;;;;;;;5092701;28;20103;-53
2021/12/03 04:39:45;;;;;;;2.22;0.50;;;;;;;;;;5092456;28;20428;-50
2021/12/03 04:42:11;;;;;;;2.25;0.68;;;;;;;;;;5092397;28;20028;-50
2021/12/03 04:44:38;;;;;;;1.02;0.40;;;;;;;;;;5092237;28;20078;-51
2021/12/03 04:47:04;;;;;;;1.15;0.40;;;14.70;82.90;;;;;;5092547;28;20382;-51
2021/12/03 04:49:31;;;;;;;0.82;0.40;;;;;;;;;;5092485;28;20036;-51
2021/12/03 04:51:57;;;;;;;1.33;0.30;;;;;;;;;;5092503;28;20031;-52
2021/12/03 04:54:23;;;;;;;0.77;0.30;;;;;;;;;;5092144;28;20032;-53
2021/12/03 04:56:49;;;;;;;0.93;0.22;;;;;;;;;;5092414;28;20420;-51
2021/12/03 04:59:15;;;;;;;2.47;0.43;;;;;;;;;;5092175;28;20036;-51
2021/12/03 05:01:41;;;;;;;1.45;0.60;;;;;;;;;;5092292;28;20175;-50
2021/12/03 05:04:07;;;;;;;1.02;0.50;;;;;;;;;;5092048;28;20038;-52
2021/12/03 05:09:18;;;;;;;0.80;0.50;;;;;;;;;;5092057;28;20516;-52
2021/12/03 05:11:44;;;;;;;1.25;0.40;;;;;;;;;;5091921;28;20100;-52
2021/12/03 05:14:10;;;;;;;1.13;0.47;;;;;;;;;;5091959;28;20111;-53
2021/12/03 05:16:36;;;;;;;1.40;0.63;;;;;;;;;;5091724;28;20028;-49
2021/12/03 05:19:02;;;;;;;1.20;0.52;;;;;;;;;;5092138;28;20116;-52
2021/12/03 05:21:28;;;;;;;2.25;0.40;;;;;;;;;;5092264;28;20024;-44
2021/12/03 05:23:54;;;;;;;1.52;0.70;;;;;;;;;;5092155;28;20070;-44
2021/12/03 05:26:20;;;;;;;1.48;0.30;;;;;;;;;;5091796;28;20113;-44
2021/12/03 05:28:46;;;;;;;1.35;0.50;;;;;;;;;;5092149;28;20102;-45
2021/12/03 05:31:12;;;;;;;1.10;0.50;;;;;;;;;;5092111;28;20020;-45
2021/12/03 05:33:38;;;;;;;1.50;0.50;;;;;;;;;;5092057;28;20020;-45
2021/12/03 05:36:04;;;;;;;1.52;0.30;;;;;;;;;;5092047;28;20029;-44
2021/12/03 05:38:30;;;;;;;2.10;0.50;;;;;;;;;;5091707;28;20024;-44
2021/12/03 05:40:56;;;;;;;1.27;0.60;;;;;;;;;;5091664;28;20035;-44
2021/12/03 05:43:22;;;;;;;1.70;0.77;;;;;;;;;;5091813;28;20040;-44
2021/12/03 05:45:48;;;;;;;1.58;0.63;;;;;;;;;;5091932;28;20024;-44
2021/12/03 05:48:14;;;;;;;1.80;0.40;;;;;;;;;;5091673;28;20498;-44
2021/12/03 05:50:41;;;;;;;2.05;0.60;;;14.50;85.20;;;;;;5091592;28;20031;-44
2021/12/03 05:53:08;;;;;;;3.30;0.50;;;;;;;;;;5091597;28;20016;-45
2021/12/03 05:55:34;;;;;;;2.90;0.47;;;;;;;;;;5091556;28;20028;-44
2021/12/03 05:58:00;;;;;;;1.45;0.63;;;;;;;;;;5091982;28;20124;-45
2021/12/03 06:00:29;;;;;;;1.67;0.75;;;14.50;84.40;;;;;;5091496;28;20056;-45
2021/12/03 06:02:57;;;;;;;0.93;0.50;;;;;;;;;;5091213;28;20048;-44
2021/12/03 06:05:25;;;;;;;2.75;0.85;;;14.40;85.10;;;;;;5091486;28;20297;-45
2021/12/03 06:07:51;;;;;;;1.80;0.70;;;;;;;;;;5091603;28;20028;-44
2021/12/03 06:10:17;;;;;;;2.38;0.85;;;;;;;;;;5091486;28;20039;-44
2021/12/03 06:12:44;;;;;;;3.45;0.80;;;;;;;;;;5091682;28;20024;-44
2021/12/03 06:15:10;;;;;;;1.88;0.45;;;;;;;;;;5091793;28;20115;-45
2021/12/03 06:17:36;;;;;;;2.58;0.70;;;;;;;;;;5091428;28;20059;-44
2021/12/03 06:20:02;;;;;;;1.17;0.50;;;;;;;;;;5091565;28;20488;-45
2021/12/03 06:22:28;;;;;;;2.83;0.50;;;;;;;;;;5089990;28;20032;-44
2021/12/03 06:24:54;;;;;;;1.33;0.50;;;;;;;;;;5091145;28;20042;-45
2021/12/03 06:27:20;;;;;;;3.70;0.65;;;;;;;;;;5092538;28;20082;-44
2021/12/03 06:29:46;;;;;;;1.85;0.70;;;;;;;;;;5094922;28;20107;-44
2021/12/03 06:32:12;;;;;;;2.15;0.63;;;;;;;;;;5094960;28;20052;-44
2021/12/03 06:34:38;;;;;;;3.25;1.05;;;;;;;;;;5094788;28;20028;-44
2021/12/03 06:37:04;;;;;;;3.97;1.15;;;;;;;;;;5094735;28;20031;-51
2021/12/03 06:39:30;;;;;;;1.33;0.55;;;;;;;;;;5094546;28;20028;-50
2021/12/03 06:41:56;;;;;;;2.33;0.80;;;;;;;;;;5094576;28;20035;-52
2021/12/03 06:44:24;;;;;;;2.80;1.20;;;;;;;;;;5094432;28;20040;-51
2021/12/03 06:46:51;;;;;;;2.10;0.85;;;;;;;;;;5094835;28;20024;-50
2021/12/03 06:49:17;;;;;;;2.20;0.77;;;;;;;;;;5094519;28;20064;-52
2021/12/03 06:51:44;;;;;;;2.00;1.02;;;;;;;;;;5094762;28;20051;-50
2021/12/03 06:54:11;;;;;;;1.88;1.15;;;;;;;;;;5094487;28;20024;-51
2021/12/03 06:56:51;;;;;;;3.92;1.10;;;;;;;;;;5094723;28;20024;-51
2021/12/03 06:59:19;;;;;;;3.28;1.00;;;15.10;84.40;;;;;;5094741;28;20028;-53
2021/12/03 07:01:45;;;;;;;2.63;1.52;;;;;;;;;;5094340;28;20080;-52
2021/12/03 07:04:11;;;;;;;2.15;1.05;;;15.20;84.20;;;;;;5094188;28;20051;-53
2021/12/03 07:06:38;;;;;;;6.07;1.63;;;15.20;83.80;;;;;;5094411;28;20107;-51
2021/12/03 07:09:05;;;;;;;3.20;1.27;;;15.40;84.50;;;;;;5094029;28;20148;-52
2021/12/03 07:11:31;;;;;;;4.15;1.30;;;;;;;;;;5093987;28;20031;-54
2021/12/03 07:13:57;;;;;;;4.13;1.38;;;;;;;;;;5094076;28;20020;-53
2021/12/03 07:16:24;;;;;;;4.57;1.10;;;;;;;;;;5094233;28;20024;-52
2021/12/03 07:18:50;;;;;;;3.67;1.35;;;;;;;;;;5093826;28;20524;-53
2021/12/03 07:21:16;;;;;;;2.70;1.30;;;;;;;;;;5093848;28;20035;-52
2021/12/03 07:23:42;;;;;;;4.72;1.40;;;;;;;;;;5094157;28;20046;-51
2021/12/03 07:26:08;;;;;;;4.68;2.00;;;;;;;;;;5093810;28;20055;-49
2021/12/03 07:28:34;;;;;;;3.65;1.48;;;;;;;;;;5094141;28;20028;-50
2021/12/03 07:31:00;;;;;;;3.22;1.27;;;;;;;;;;5093918;28;20077;-50
2021/12/03 07:33:31;;;;;;;4.38;1.00;;;;;;;;;;5093872;28;20055;-51
2021/12/03 07:35:57;;;;;;;3.83;1.30;;;;;;;;;;5094089;28;20093;-52
2021/12/03 07:38:23;;;;;;;2.80;1.40;;;;;;;;;;5093589;28;20024;-54
2021/12/03 07:40:50;;;;;;;6.75;1.60;;;;;;;;;;5093771;28;20093;-54
2021/12/03 07:43:17;;;;;;;7.18;1.30;;;16.00;83.20;;;;;;5092230;28;20028;-52
2021/12/03 07:45:47;;;;;;;3.97;1.33;;;16.10;83.50;;;;;;5093519;28;20478;-52
2021/12/03 07:48:13;;;;;;;3.85;0.90;;;;;;;;;;5093838;28;20069;-50
2021/12/03 07:50:40;;;;;;;5.97;1.77;;;;;;;;;;5093524;28;20107;-52
2021/12/03 07:53:07;;;;;;;2.78;1.15;;;16.20;82.00;;;;;;5093432;28;20477;-50
2021/12/03 07:55:34;;;;;;;7.55;1.50;;;16.60;82.30;;;;;;5093727;28;20554;-51
2021/12/03 07:58:01;;;;;;;4.18;1.17;;;;;;;;;;5093997;28;20020;-52
2021/12/03 08:00:27;;;;;;;3.40;1.40;;;;;;;;;;5093320;28;20557;-51
2021/12/03 08:02:53;;;;;;;4.78;1.17;;;;;;;;;;5093236;28;20122;-53
2021/12/03 08:05:19;;;;;;;4.68;1.73;;;;;;;;;;5093182;28;20525;-50
2021/12/03 08:07:47;;;;;;;4.43;1.60;;;;;;;;;;5093231;28;20078;-52
2021/12/03 08:10:14;;;;;;;4.93;1.60;;;16.90;82.20;;;;;;5091796;28;20028;-51
2021/12/03 08:12:41;;;;;;;3.90;1.80;;;16.90;78.60;;;;;;5093139;28;20020;-50
2021/12/03 08:15:07;;;;;;;5.82;2.03;;;;;;;;;;5093425;28;20043;-53
2021/12/03 08:17:33;;;;;;;7.40;1.85;;;;;;;;;;5092996;28;20032;-50
2021/12/03 08:19:59;;;;;;;5.15;1.92;;;;;;;;;;5092941;28;20494;-50
2021/12/03 08:22:26;;;;;;;6.03;1.90;;;;;;;;;;5092912;28;20541;-53
2021/12/03 08:24:52;;;;;;;6.45;2.55;;;;;;;;;;5093095;28;20462;-50
2021/12/03 08:27:18;;;;;;;6.00;2.25;;;;;;;;;;5092887;28;20056;-45
2021/12/03 08:29:44;;;;;;;6.20;1.98;;;;;;;;;;5093113;28;20030;-44
2021/12/03 08:32:10;;;;;;;5.20;1.67;;;;;;;;;;5092729;28;20463;-45
2021/12/03 08:34:36;;;;;;;5.63;1.80;;;;;;;;;;5092781;28;20051;-45
2021/12/03 08:37:03;;;;;;;4.70;2.08;;;;;;;;;;5092900;28;20016;-44
2021/12/03 08:39:30;;;;;;;6.93;1.92;;;17.80;79.30;;;;;;5092600;28;20035;-44
2021/12/03 08:41:56;;;;;;;8.55;2.60;;;;;;;;;;5092621;28;20017;-44
2021/12/03 08:44:22;;;;;;;6.65;2.20;;;;;;;;;;5092408;28;20047;-51
2021/12/03 08:46:56;;;;;;;4.70;2.00;;;18.10;77.00;;;;;;5092419;28;20532;-51
2021/12/03 08:49:30;;;;;;;8.23;2.17;;;;;;;;;;5092085;28;20499;-52
2021/12/03 08:57:14;;;;;;;6.65;2.13;;;;;;;;;;5092381;28;20043;-53
2021/12/03 08:59:40;;;;;;;6.53;1.90;;;;;;;;;;5092536;28;20435;-49
2021/12/03 09:02:06;;;;;;;8.52;2.08;;;;;;;;;;5092367;28;20043;-51
2021/12/03 09:04:33;;;;;;;5.53;2.22;;;;;;;;;;5092232;28;20115;-51
2021/12/03 09:07:00;;;;;;;5.95;2.10;;;;;;;;;;5092201;28;20024;-52
2021/12/03 09:09:26;;;;;;;6.03;2.25;;;;;;;;;;5092523;28;20081;-54
2021/12/03 09:11:52;;;;;;;6.93;1.92;;;;;;;;;;5092206;28;20036;-53
2021/12/03 09:14:25;;;;;;;5.40;2.03;;;;;;;;;;5092134;28;20459;-51
2021/12/03 09:19:44;;;;;;;5.03;1.92;;;;;;;;;;5092480;28;20521;-45
2021/12/03 09:22:15;;;;;;;6.28;2.42;;;;;;;;;;5092138;28;20474;-46
2021/12/03 09:24:41;;;;;;;10.75;1.75;;;;;;;;;;5091965;28;20043;-45
2021/12/03 09:27:07;;;;;;;6.80;1.92;;;;;;;;;;5092291;28;20025;-45
2021/12/03 09:29:35;;;;;;;5.05;2.13;;;;;;;;;;5092312;28;20024;-44
2021/12/03 09:32:01;;;;;;;6.65;1.85;;;;;;;;;;5091955;28;20085;-45
2021/12/03 09:34:32;;;;;;;6.35;2.42;;;19.20;76.50;;;;;;5091964;28;20032;-45
2021/12/03 09:36:58;;;;;;;5.03;2.00;;;;;;;;;;5092010;28;20020;-45
2021/12/03 09:39:24;;;;;;;4.53;2.22;;;;;;;;;;5092370;28;20024;-45
2021/12/03 09:41:55;;;;;;;7.53;2.42;;;19.20;76.20;;;;;;5091903;28;20482;-44
2021/12/03 09:44:21;;;;;;;5.13;1.70;;;;;;;;;;5092175;28;20115;-45
2021/12/03 09:46:49;;;;;;;5.38;2.05;;;19.30;75.90;;;;;;5091948;28;20496;-45
2021/12/03 09:49:26;;;;;;;5.03;1.85;;;;;;;;;;5091793;28;20489;-45
2021/12/03 09:54:28;;;;;;;4.15;1.80;;;19.40;75.20;;;;;;5091822;28;20466;-46
2021/12/03 09:57:00;;;;;;;9.90;2.45;;;19.30;75.50;;;;;;5092115;28;20052;-45
2021/12/03 10:15:29;;;;;;;7.45;2.33;;;19.40;74.60;;;;;;5095796;28;20089;-45
2021/12/03 10:18:11;;;;;;;4.57;1.98;;;;;;;;;;5095363;28;20516;-46
2021/12/03 10:20:46;;;;;;;5.70;2.15;;;;;;;;;;5095672;28;20051;-45
2021/12/03 10:27:11;;;;;;;7.47;2.30;;;;;;;;;;5072481;28;20081;-45
2021/12/03 10:29:38;;;;;;;5.03;2.08;;;;;;;;;;5072349;28;20529;-45
2021/12/03 10:32:28;;;;;;;4.97;2.33;;;;;;;;;;5090127;28;20043;-45
2021/12/03 10:35:22;;;;;;;6.13;2.10;;;19.50;69.20;;;;;;5095020;28;20031;-45
2021/12/03 10:38:17;;;;;;;5.18;1.85;;;19.50;74.90;;;;;;5094884;28;20046;-45
2021/12/03 10:46:13;;;;;;;5.80;2.15;;;19.60;69.60;;;;;;5094830;28;20406;-45
2021/12/03 10:54:21;;;;;;;5.43;2.05;;;;;;;;;;5094777;28;20081;-45
2021/12/03 11:29:03;;;;;;;4.40;1.67;;;19.80;75.00;;;;;;5094098;28;20035;-46
2021/12/03 11:48:09;;;;;;;4.70;1.70;;;20.10;73.40;;;;;;5094034;28;20410;-46
2021/12/03 13:30:46;;;;;;;1.58;1.00;;;;;;;;;;5092408;28;20096;-55
2021/12/03 13:33:14;;;;;;;2.90;0.90;;;;;;;;;;5091574;28;20039;-55
2021/12/03 14:09:22;;;;;;;1.85;1.00;;;17.90;76.40;;;;;;5096118;28;20085;-56
2021/12/03 14:32:39;;;;;;;2.13;0.80;;;;;;;;;;5095688;28;20028;-54
2021/12/03 14:53:15;;;;;;;2.58;0.65;;;18.10;80.20;;;;;;5095199;28;20039;-55
2021/12/03 14:55:41;;;;;;;1.45;0.75;;;18.30;78.90;;;;;;5095793;28;20113;-52
2021/12/03 14:58:10;;;;;;;1.42;0.50;;;18.30;79.10;;;;;;5094788;28;20031;-54
2021/12/03 15:01:00;;;;;;;3.72;0.43;;;;;;;;;;5094470;28;20483;-52
2021/12/03 15:03:29;;;;;;;1.20;0.60;;;;;;;;;;5094029;28;20067;-52
2021/12/03 15:09:10;;;;;;;2.92;0.55;;;;;;;;;;5095606;28;20039;-55
2021/12/03 15:32:41;;;;;;;0.57;0.40;;;18.40;78.30;;;;;;5095344;28;20394;-55
2021/12/03 15:35:16;;;;;;;1.58;0.60;;;18.40;76.10;;;;;;5094501;28;20024;-55
2021/12/03 15:38:06;;;;;;;0.90;0.55;;;;;;;;;;5094650;28;20036;-54
2021/12/03 15:41:02;;;;;;;0.68;0.52;;;;;;;;;;5094276;28;20039;-55
2021/12/03 16:10:22;;;;;;;0.50;0.50;;;;;;;;;;5093360;28;20386;-54
2021/12/03 16:13:10;;;;;;;0.85;0.60;;;;;;;;;;5093671;28;20031;-52
2021/12/03 16:20:59;;;;;;;0.98;0.68;;;;;;;;;;5093061;28;20080;-55
2021/12/03 16:50:42;;;;;;;0.45;0.43;;;;;;;;;;5092601;28;20042;-45
2021/12/03 16:52:59;;;;;;;0.75;0.70;;;;;;;;;;5092242;28;20035;-45
2021/12/03 16:55:25;;;;;;;0.90;0.63;;;;;;;;;;5092458;28;20046;-45
2021/12/03 16:57:53;;;;;;;0.75;0.60;;;;;;;;;;5092235;28;20141;-45
2021/12/03 17:02:57;;;;;;;1.02;0.50;;;17.90;77.70;;;;;;5092162;28;20538;-45
2021/12/03 17:16:12;;;;;;;1.13;0.63;;;;;;;;;;5092296;28;20047;-45
2021/12/03 17:19:05;;;;;;;2.55;0.60;;;;;;;;;;5091766;28;20036;-45
2021/12/03 17:24:42;;;;;;;1.20;0.73;;;;;;;;;;5092311;28;20039;-54
2021/12/03 17:51:49;;;;;;;1.00;0.50;;;17.80;60.80;;;;;;5091811;28;20655;-46
2021/12/03 17:57:39;;;;;;;1.85;0.50;;;;;;;;;;5091867;28;20513;-45
2021/12/03 17:59:53;;;;;;;2.33;0.55;;;;;;;;;;5091308;28;20042;-45
2021/12/03 18:02:43;;;;;;;3.75;0.90;;;17.90;63.50;;;;;;5091633;28;20040;-45
2021/12/03 18:58:59;;;;;;;1.23;0.50;;;;;;;;;;5094829;28;20054;-45
2021/12/03 19:01:28;;;;;;;0.77;0.50;;;;;;;;;;5094700;28;20106;-45
2021/12/03 19:04:05;;;;;;;1.25;0.60;;;;;;;;;;5094185;28;20083;-45
2021/12/03 19:06:40;;;;;;;0.93;0.68;;;;;;;;;;5094524;28;20140;-46
2021/12/03 19:09:13;;;;;;;0.82;0.50;;;;;;;;;;5094719;28;20028;-44
2021/12/03 19:11:49;;;;;;;1.02;0.60;;;;;;;;;;5094721;28;20039;-44
2021/12/03 19:14:15;;;;;;;1.15;0.85;;;;;;;;;;5094583;28;20028;-45
2021/12/03 19:16:41;;;;;;;0.93;0.70;;;;;;;;;;5094243;28;20032;-44
2021/12/03 19:19:09;;;;;;;0.93;0.60;;;;;;;;;;5094149;28;20027;-45
2021/12/03 19:21:39;;;;;;;1.10;0.70;;;;;;;;;;5094053;28;20036;-45
2021/12/03 19:24:05;;;;;;;;;;;17.20;62.60;;;;;;5094495;28;20036;-45
2021/12/03 19:26:33;;;;;;;1.42;0.68;;;17.30;66.30;;;;;;5094061;28;19915;-45
2021/12/03 19:29:01;;;;;;;0.60;0.60;;;17.10;66.20;;;;;;5093943;28;20031;-45
2021/12/03 19:31:27;;;;;;;0.60;0.50;;;;;;;;;;5092631;28;20542;-45
2021/12/03 19:33:53;;;;;;;0.80;0.80;;;;;;;;;;5093608;28;20085;-46
2021/12/03 19:36:24;;;;;;;0.82;0.50;;;;;;;;;;5093792;28;20478;-45
2021/12/03 19:38:50;;;;;;;1.92;0.57;;;;;;;;;;5094045;28;20032;-44
2021/12/03 19:44:02;;;;;;;0.55;0.52;;;;;;;;;;5093602;28;20066;-45
2021/12/03 19:46:34;;;;;;;0.65;0.50;;;;;;;;;;5093881;28;20107;-45
2021/12/03 19:49:12;;;;;;;0.38;0.38;;;;;;;;;;5093627;28;20024;-45
2021/12/03 19:51:46;;;;;;;1.25;0.82;;;;;;;;;;5093525;28;20103;-45
2021/12/03 19:54:12;;;;;;;1.08;0.70;;;;;;;;;;5092937;28;20036;-47
2021/12/03 19:56:40;;;;;;;0.63;0.50;;;;;;;;;;5093277;28;20020;-44
2021/12/03 19:59:06;;;;;;;4.35;1.75;;;;;;;;;;5093606;28;20115;-45
2021/12/03 20:01:34;;;;;;;3.08;2.30;;;16.90;66.50;;;;;;5093154;28;20088;-47
2021/12/03 20:04:02;;;;;;;7.32;2.33;;;17.10;65.40;;;;;;5093044;28;20044;-45
2021/12/03 20:06:28;;;;;;;3.92;2.20;;;;;;;;;;5093439;28;20390;-44
2021/12/03 20:08:57;;;;;;;4.15;2.72;;;;;;;;;;5093112;28;20189;-45
2021/12/03 20:11:28;;;;;;;7.45;2.92;;;17.10;64.60;;;;;;5093086;28;20016;-47
2021/12/03 20:14:00;;;;;;;4.13;2.35;;;17.10;66.60;;;;;;5093129;28;20036;-45
2021/12/03 20:16:38;;;;;;;8.32;2.53;;;;;;;;;;5093221;28;20016;-46
2021/12/03 20:19:18;;;;;;;5.35;2.50;;;;;;;;;;5093261;28;20115;-46
2021/12/03 20:21:52;;;;;;;4.72;2.15;;;;;;;;;;5093276;28;20028;-46
2021/12/03 20:25:37;;;;;;;4.35;2.35;;;;;;;;;;5093103;28;20399;-45
2021/12/03 20:27:17;;;;;;;5.15;2.42;;;17.20;66.40;;;;;;5092117;28;20036;-45
2021/12/03 20:29:54;;;;;;;3.75;2.22;;;;;;;;;;5093003;28;20020;-46
2021/12/03 20:37:43;;;;;;;3.10;1.98;;;;;;;;;;5092768;28;20501;-47
2021/12/03 20:40:19;;;;;;;3.83;1.90;;;;;;;;;;5092780;28;20028;-46
2021/12/03 20:45:34;;;;;;;2.92;2.08;;;;;;;;;;5092417;28;20573;-47
2021/12/03 20:48:14;;;;;;;3.08;2.25;;;;;;;;;;5092583;28;20028;-46
2021/12/03 20:51:09;;;;;;;4.03;2.00;;;17.30;64.90;;;;;;5092701;28;20035;-45
2021/12/03 21:09:59;;;;;;;4.18;1.65;;;;;;;;;;5089878;28;20505;-46
2021/12/03 21:12:46;;;;;;;5.53;1.80;;;;;;;;;;5091630;28;20040;-46
2021/12/03 21:15:20;;;;;;;3.00;1.60;;;;;;;;;;5091609;28;20474;-46
2021/12/03 21:18:03;;;;;;;2.38;1.48;;;;;;;;;;5091022;28;20031;-46
2021/12/03 21:20:39;;;;;;;2.60;1.42;;;;;;;;;;5091314;28;20037;-46
2021/12/03 21:23:08;;;;;;;2.38;1.73;;;;;;;;;;5091003;28;20023;-46
2021/12/03 21:25:35;;;;;;;3.92;1.75;;;;;;;;;;5091157;28;20036;-46
2021/12/03 21:28:33;;;;;;;4.38;1.50;;;17.40;69.70;;;;;;5091269;28;20475;-46
2021/12/03 21:31:08;;;;;;;15.05;1.98;;;;;;;;;;5092412;28;20024;-46
2021/12/03 21:41:24;;;;;;;1.60;1.10;;;;;;;;;;5092004;28;20047;-46
2021/12/03 21:43:54;;;;;;;3.97;1.55;;;17.40;68.20;;;;;;5090145;28;20147;-46
2021/12/03 21:46:21;;;;;;;2.00;1.47;;;17.40;69.00;;;;;;5091982;28;20024;-46
2021/12/03 21:48:47;;;;;;;3.75;1.88;;;;;;;;;;5091600;28;20286;-46
2021/12/03 21:51:14;;;;;;;3.00;1.63;;;;;;;;;;5091457;28;20024;-46
2021/12/03 21:53:40;;;;;;;1.63;1.30;;;17.20;71.70;;;;;;5091755;28;20030;-45
2021/12/03 21:56:06;;;;;;;1.60;1.10;;;;;;;;;;5091779;28;20032;-46
2021/12/03 21:58:32;;;;;;;3.22;1.45;;;;;;;;;;5094675;28;20035;-47
2021/12/03 22:00:58;;;;;;;2.63;1.25;;;;;;;;;;5095637;28;20103;-46
2021/12/03 22:03:24;;;;;;;3.63;1.40;;;;;;;;;;5095441;28;20059;-47
2021/12/03 22:05:51;;;;;;;1.80;1.30;;;;;;;;;;5095623;28;20347;-47
2021/12/03 22:08:17;;;;;;;2.35;1.30;;;;;;;;;;5095430;28;20024;-47
2021/12/03 22:10:43;;;;;;;4.15;1.10;;;;;;;;;;5095355;28;20085;-47
2021/12/03 22:13:09;;;;;;;3.45;1.23;;;;;;;;;;5095413;28;20482;-48
2021/12/03 22:15:35;;;;;;;2.80;1.60;;;;;;;;;;5095618;28;20024;-46
2021/12/03 22:18:01;;;;;;;4.72;1.80;;;;;;;;;;5095340;28;20062;-45
2021/12/03 22:20:27;;;;;;;2.67;1.70;;;;;;;;;;5095173;28;20043;-45
2021/12/03 22:22:53;;;;;;;3.60;1.50;;;;;;;;;;5095054;28;20052;-46